Etusivu
METAR-TAF:

METAR-TAF

Lentoasemat :

Guadalupe Mountainsin kansallispuisto

Pine Springs, Texas, Yhdysvallat

Leveyspiiri: 31-49-52N, Pituuspiiri: 104-48-32W, korkeus merenpinnasta: 1661 m

Tämänhetkinen sää

Tämä raportti tehtiin 30 minuuttia sitten, kello 10.51 UTC
Tuuli 16 kn lounaasta
Lämpötila 5°C
Kosteus 56%
Ilmanpaine 1019 hPa
Näkyvyys: 16.1 km
selkeää

METAR: KGDP 181051Z AUTO 23016KT 10SM CLR 05/M03 A3009 RMK AO2 SLP161 T00501028

Aika: 05:21 (11:21 UTC)


TAF: puuttuu

Säähavainnot ja -ennusteet yli 4000 lentoasemalta (METAR- ja TAF-raportit).

Käytössä olevat sääasemat on merkitty karttaan keltaisilla ja punaisilla pisteillä.

Aseta hiiri pisteen päälle nähdäksesi sääaseman nimen.

Klikkaa sitten nähdäksesi säähavainnot ja -ennusteet.

Kartan vaihtaminen: klikkaa mustalla rastilla varustettuja vihreitä pisteitä, niin voit zoomata sisään; viivalla varustettua vihreää pistettä, niin voit zoomata ulos tai vihreitä nuolia, niin pääset viereisille kartoille.


METAR-TAF: